sensor_id;sensor_type;location;lat;lon;timestamp;pressure;altitude;pressure_sealevel;temperature;humidity
43878;BME280;29815;48.184;11.268;2023-02-03T00:00:58;96643.31;;;3.67;100.00
43878;BME280;29815;48.184;11.268;2023-02-03T00:03:28;96653.38;;;3.71;100.00
43878;BME280;29815;48.184;11.268;2023-02-03T00:05:59;96650.69;;;3.71;100.00
43878;BME280;29815;48.184;11.268;2023-02-03T00:08:30;96659.13;;;3.82;100.00
43878;BME280;29815;48.184;11.268;2023-02-03T00:11:01;96653.38;;;3.85;100.00
43878;BME280;29815;48.184;11.268;2023-02-03T00:13:31;96653.78;;;3.75;100.00
43878;BME280;29815;48.184;11.268;2023-02-03T00:16:00;96663.41;;;3.76;100.00
43878;BME280;29815;48.184;11.268;2023-02-03T00:18:30;96654.63;;;3.82;100.00
43878;BME280;29815;48.184;11.268;2023-02-03T00:21:00;96637.44;;;3.91;100.00
43878;BME280;29815;48.184;11.268;2023-02-03T00:23:29;96642.34;;;3.88;100.00
43878;BME280;29815;48.184;11.268;2023-02-03T00:26:07;96638.84;;;3.87;100.00
43878;BME280;29815;48.184;11.268;2023-02-03T00:28:38;96636.19;;;3.81;100.00
43878;BME280;29815;48.184;11.268;2023-02-03T00:31:15;96630.88;;;3.81;100.00
43878;BME280;29815;48.184;11.268;2023-02-03T00:33:46;96631.06;;;3.86;100.00
43878;BME280;29815;48.184;11.268;2023-02-03T00:36:17;96636.41;;;3.79;100.00
43878;BME280;29815;48.184;11.268;2023-02-03T00:38:47;96633.72;;;3.86;100.00
43878;BME280;29815;48.184;11.268;2023-02-03T00:41:19;96641.91;;;3.84;100.00
43878;BME280;29815;48.184;11.268;2023-02-03T00:43:53;96638.66;;;3.82;100.00
43878;BME280;29815;48.184;11.268;2023-02-03T00:46:22;96634.53;;;3.86;100.00
43878;BME280;29815;48.184;11.268;2023-02-03T00:48:52;96642.53;;;3.86;100.00
43878;BME280;29815;48.184;11.268;2023-02-03T00:51:21;96638.03;;;3.87;100.00
43878;BME280;29815;48.184;11.268;2023-02-03T00:53:50;96641.94;;;3.91;100.00
43878;BME280;29815;48.184;11.268;2023-02-03T00:56:21;96641.13;;;3.90;100.00
43878;BME280;29815;48.184;11.268;2023-02-03T00:58:51;96644.81;;;3.96;100.00
43878;BME280;29815;48.184;11.268;2023-02-03T01:01:20;96649.31;;;3.89;100.00
43878;BME280;29815;48.184;11.268;2023-02-03T01:03:50;96663.25;;;3.91;100.00
43878;BME280;29815;48.184;11.268;2023-02-03T01:06:20;96668.59;;;3.97;100.00
43878;BME280;29815;48.184;11.268;2023-02-03T01:08:50;96655.25;;;3.91;100.00
43878;BME280;29815;48.184;11.268;2023-02-03T01:11:23;96657.72;;;3.92;100.00
43878;BME280;29815;48.184;11.268;2023-02-03T01:13:56;96664.69;;;3.93;100.00
43878;BME280;29815;48.184;11.268;2023-02-03T01:16:29;96674.13;;;3.96;100.00
43878;BME280;29815;48.184;11.268;2023-02-03T01:19:03;96661.41;;;3.91;100.00
43878;BME280;29815;48.184;11.268;2023-02-03T01:21:33;96658.53;;;3.93;100.00
43878;BME280;29815;48.184;11.268;2023-02-03T01:24:03;96658.34;;;3.94;100.00
43878;BME280;29815;48.184;11.268;2023-02-03T01:26:34;96659.97;;;3.95;100.00
43878;BME280;29815;48.184;11.268;2023-02-03T01:29:04;96667.97;;;3.95;100.00
43878;BME280;29815;48.184;11.268;2023-02-03T01:31:36;96645.03;;;4.01;100.00
43878;BME280;29815;48.184;11.268;2023-02-03T01:34:11;96647.91;;;3.99;100.00
43878;BME280;29815;48.184;11.268;2023-02-03T01:36:43;96637.44;;;3.98;100.00
43878;BME280;29815;48.184;11.268;2023-02-03T01:39:14;96643.59;;;3.98;100.00
43878;BME280;29815;48.184;11.268;2023-02-03T01:41:46;96633.78;;;4.05;100.00
43878;BME280;29815;48.184;11.268;2023-02-03T01:44:38;96636.03;;;4.02;100.00
43878;BME280;29815;48.184;11.268;2023-02-03T01:47:17;96634.19;;;4.02;100.00
43878;BME280;29815;48.184;11.268;2023-02-03T01:49:58;96631.53;;;4.02;100.00
43878;BME280;29815;48.184;11.268;2023-02-03T01:52:33;96638.06;;;4.00;100.00
43878;BME280;29815;48.184;11.268;2023-02-03T01:55:07;96639.28;;;3.97;100.00
43878;BME280;29815;48.184;11.268;2023-02-03T01:57:43;96630.72;;;4.02;100.00
43878;BME280;29815;48.184;11.268;2023-02-03T02:00:16;96628.84;;;3.96;100.00
43878;BME280;29815;48.184;11.268;2023-02-03T02:02:47;96634.16;;;3.89;100.00
43878;BME280;29815;48.184;11.268;2023-02-03T02:05:23;96623.13;;;3.99;100.00
43878;BME280;29815;48.184;11.268;2023-02-03T02:07:57;96623.31;;;3.97;100.00
43878;BME280;29815;48.184;11.268;2023-02-03T02:10:28;96631.53;;;4.02;100.00
43878;BME280;29815;48.184;11.268;2023-02-03T02:13:02;96612.88;;;4.02;100.00
43878;BME280;29815;48.184;11.268;2023-02-03T02:15:44;96623.13;;;4.12;100.00
43878;BME280;29815;48.184;11.268;2023-02-03T02:18:39;96620.06;;;4.08;100.00
43878;BME280;29815;48.184;11.268;2023-02-03T02:24:58;96614.31;;;4.12;100.00
43878;BME280;29815;48.184;11.268;2023-02-03T02:28:33;96604.66;;;4.11;100.00
43878;BME280;29815;48.184;11.268;2023-02-03T02:31:46;96618.81;;;4.11;100.00
43878;BME280;29815;48.184;11.268;2023-02-03T02:34:35;96617.41;;;4.08;100.00
43878;BME280;29815;48.184;11.268;2023-02-03T02:37:18;96623.94;;;4.13;100.00
43878;BME280;29815;48.184;11.268;2023-02-03T02:39:59;96629.28;;;4.13;100.00
43878;BME280;29815;48.184;11.268;2023-02-03T02:42:55;96631.13;;;4.19;100.00
43878;BME280;29815;48.184;11.268;2023-02-03T02:45:40;96630.91;;;4.14;100.00
43878;BME280;29815;48.184;11.268;2023-02-03T02:48:22;96632.75;;;4.13;100.00
43878;BME280;29815;48.184;11.268;2023-02-03T02:50:57;96630.09;;;4.13;100.00
43878;BME280;29815;48.184;11.268;2023-02-03T02:53:33;96618.22;;;4.16;100.00
43878;BME280;29815;48.184;11.268;2023-02-03T02:56:07;96604.06;;;4.15;100.00
43878;BME280;29815;48.184;11.268;2023-02-03T02:58:41;96616.38;;;4.16;100.00
43878;BME280;29815;48.184;11.268;2023-02-03T03:01:14;96611.25;;;4.15;100.00
43878;BME280;29815;48.184;11.268;2023-02-03T03:03:47;96615.75;;;4.14;100.00
43878;BME280;29815;48.184;11.268;2023-02-03T03:06:20;96603.25;;;4.15;100.00
43878;BME280;29815;48.184;11.268;2023-02-03T03:08:56;96616.59;;;4.08;100.00
43878;BME280;29815;48.184;11.268;2023-02-03T03:11:31;96625.38;;;4.15;100.00
43878;BME280;29815;48.184;11.268;2023-02-03T03:14:05;96607.56;;;4.16;100.00
43878;BME280;29815;48.184;11.268;2023-02-03T03:16:38;96611.25;;;4.15;100.00
43878;BME280;29815;48.184;11.268;2023-02-03T03:19:16;96612.06;;;4.22;100.00
43878;BME280;29815;48.184;11.268;2023-02-03T03:21:52;96608.78;;;4.20;100.00
43878;BME280;29815;48.184;11.268;2023-02-03T03:24:28;96605.72;;;4.16;100.00
43878;BME280;29815;48.184;11.268;2023-02-03T03:27:06;96623.13;;;4.19;100.00
43878;BME280;29815;48.184;11.268;2023-02-03T03:29:40;96622.31;;;4.18;100.00
43878;BME280;29815;48.184;11.268;2023-02-03T03:32:11;96623.34;;;4.24;100.00
43878;BME280;29815;48.184;11.268;2023-02-03T03:34:42;96607.56;;;4.16;100.00
43878;BME280;29815;48.184;11.268;2023-02-03T03:37:17;96601.00;;;4.18;100.00
43878;BME280;29815;48.184;11.268;2023-02-03T03:39:54;96590.97;;;4.07;100.00
43878;BME280;29815;48.184;11.268;2023-02-03T03:42:28;96586.47;;;4.07;100.00
43878;BME280;29815;48.184;11.268;2023-02-03T03:45:08;96590.16;;;4.06;100.00
43878;BME280;29815;48.184;11.268;2023-02-03T03:47:46;96584.59;;;4.15;100.00
43878;BME280;29815;48.184;11.268;2023-02-03T03:50:24;96594.00;;;4.11;100.00
43878;BME280;29815;48.184;11.268;2023-02-03T03:52:57;96596.47;;;4.12;100.00
43878;BME280;29815;48.184;11.268;2023-02-03T03:55:31;96593.44;;;4.08;100.00
43878;BME280;29815;48.184;11.268;2023-02-03T03:58:06;96610.81;;;4.11;100.00
43878;BME280;29815;48.184;11.268;2023-02-03T04:00:39;96601.63;;;4.07;100.00
43878;BME280;29815;48.184;11.268;2023-02-03T04:03:14;96601.00;;;4.12;100.00
43878;BME280;29815;48.184;11.268;2023-02-03T04:05:46;96596.69;;;4.04;100.00
43878;BME280;29815;48.184;11.268;2023-02-03T04:08:15;96615.53;;;3.96;100.00
43878;BME280;29815;48.184;11.268;2023-02-03T04:10:45;96622.91;;;4.00;100.00
43878;BME280;29815;48.184;11.268;2023-02-03T04:13:15;96623.31;;;3.97;100.00
43878;BME280;29815;48.184;11.268;2023-02-03T04:15:47;96625.78;;;4.05;100.00
43878;BME280;29815;48.184;11.268;2023-02-03T04:18:17;96631.72;;;4.01;100.00
43878;BME280;29815;48.184;11.268;2023-02-03T04:20:48;96627.22;;;4.01;100.00
43878;BME280;29815;48.184;11.268;2023-02-03T04:23:18;96627.81;;;3.97;100.00
43878;BME280;29815;48.184;11.268;2023-02-03T04:25:48;96635.41;;;4.00;100.00
43878;BME280;29815;48.184;11.268;2023-02-03T04:28:17;96641.75;;;3.99;100.00
43878;BME280;29815;48.184;11.268;2023-02-03T04:30:47;96660.03;;;4.08;100.00
43878;BME280;29815;48.184;11.268;2023-02-03T04:33:16;96645.66;;;3.96;100.00
43878;BME280;29815;48.184;11.268;2023-02-03T04:35:45;96637.63;;;3.90;100.00
43878;BME280;29815;48.184;11.268;2023-02-03T04:38:16;96622.69;;;3.89;100.00
43878;BME280;29815;48.184;11.268;2023-02-03T04:40:46;96623.50;;;3.96;100.00
43878;BME280;29815;48.184;11.268;2023-02-03T04:43:15;96639.50;;;3.96;100.00
43878;BME280;29815;48.184;11.268;2023-02-03T04:45:44;96638.88;;;3.94;100.00
43878;BME280;29815;48.184;11.268;2023-02-03T04:48:14;96643.59;;;3.92;100.00
43878;BME280;29815;48.184;11.268;2023-02-03T04:50:44;96643.16;;;3.88;100.00
43878;BME280;29815;48.184;11.268;2023-02-03T04:53:13;96642.94;;;3.83;100.00
43878;BME280;29815;48.184;11.268;2023-02-03T04:55:47;96634.16;;;3.89;100.00
43878;BME280;29815;48.184;11.268;2023-02-03T04:58:16;96634.94;;;3.83;100.00
43878;BME280;29815;48.184;11.268;2023-02-03T05:00:46;96639.06;;;3.79;100.00
43878;BME280;29815;48.184;11.268;2023-02-03T05:03:15;96629.84;;;3.82;100.00
43878;BME280;29815;48.184;11.268;2023-02-03T05:05:45;96636.38;;;3.86;100.00
43878;BME280;29815;48.184;11.268;2023-02-03T05:08:14;96628.84;;;3.83;100.00
43878;BME280;29815;48.184;11.268;2023-02-03T05:10:45;96631.47;;;3.76;100.00
43878;BME280;29815;48.184;11.268;2023-02-03T05:13:15;96646.03;;;3.80;100.00
43878;BME280;29815;48.184;11.268;2023-02-03T05:15:44;96647.47;;;3.83;100.00
43878;BME280;29815;48.184;11.268;2023-02-03T05:18:14;96648.25;;;3.83;100.00
43878;BME280;29815;48.184;11.268;2023-02-03T05:20:43;96653.19;;;3.80;100.00
43878;BME280;29815;48.184;11.268;2023-02-03T05:23:12;96657.06;;;3.77;100.00
43878;BME280;29815;48.184;11.268;2023-02-03T05:25:43;96645.81;;;3.82;100.00
43878;BME280;29815;48.184;11.268;2023-02-03T05:28:14;96651.75;;;3.84;100.00
43878;BME280;29815;48.184;11.268;2023-02-03T05:30:44;96633.94;;;3.84;100.00
43878;BME280;29815;48.184;11.268;2023-02-03T05:33:14;96622.47;;;3.77;100.00
43878;BME280;29815;48.184;11.268;2023-02-03T05:35:43;96627.38;;;3.80;100.00
43878;BME280;29815;48.184;11.268;2023-02-03T05:38:13;96629.22;;;3.80;100.00
43878;BME280;29815;48.184;11.268;2023-02-03T05:40:42;96614.06;;;3.73;100.00
43878;BME280;29815;48.184;11.268;2023-02-03T05:43:31;96628.81;;;3.76;100.00
43878;BME280;29815;48.184;11.268;2023-02-03T05:46:00;96608.31;;;3.70;100.00
43878;BME280;29815;48.184;11.268;2023-02-03T05:48:31;96607.09;;;3.72;100.00
43878;BME280;29815;48.184;11.268;2023-02-03T05:51:01;96595.22;;;3.75;100.00
43878;BME280;29815;48.184;11.268;2023-02-03T05:53:30;96603.59;;;3.72;100.00
43878;BME280;29815;48.184;11.268;2023-02-03T05:56:00;96607.09;;;3.72;100.00
43878;BME280;29815;48.184;11.268;2023-02-03T05:58:30;96597.06;;;3.74;100.00
43878;BME280;29815;48.184;11.268;2023-02-03T06:01:00;96598.28;;;3.72;100.00
43878;BME280;29815;48.184;11.268;2023-02-03T06:03:29;96599.31;;;3.78;100.00
43878;BME280;29815;48.184;11.268;2023-02-03T06:05:59;96602.38;;;3.74;100.00
43878;BME280;29815;48.184;11.268;2023-02-03T06:08:28;96623.69;;;3.81;100.00
43878;BME280;29815;48.184;11.268;2023-02-03T06:10:58;96621.88;;;3.82;100.00
43878;BME280;29815;48.184;11.268;2023-02-03T06:13:29;96629.19;;;3.73;100.00
43878;BME280;29815;48.184;11.268;2023-02-03T06:15:59;96596.66;;;3.78;100.00
43878;BME280;29815;48.184;11.268;2023-02-03T06:18:28;96603.81;;;3.84;100.00
43878;BME280;29815;48.184;11.268;2023-02-03T06:20:58;96604.03;;;3.82;100.00
43878;BME280;29815;48.184;11.268;2023-02-03T06:23:28;96623.91;;;3.80;100.00
43878;BME280;29815;48.184;11.268;2023-02-03T06:25:58;96612.81;;;3.76;100.00
43878;BME280;29815;48.184;11.268;2023-02-03T06:28:29;96619.38;;;3.73;100.00
43878;BME280;29815;48.184;11.268;2023-02-03T06:31:00;96619.19;;;3.75;100.00
43878;BME280;29815;48.184;11.268;2023-02-03T06:33:30;96624.91;;;3.72;100.00
43878;BME280;29815;48.184;11.268;2023-02-03T06:36:00;96610.75;;;3.71;100.00
43878;BME280;29815;48.184;11.268;2023-02-03T06:38:30;96610.97;;;3.70;100.00
43878;BME280;29815;48.184;11.268;2023-02-03T06:40:59;96577.41;;;3.76;100.00
43878;BME280;29815;48.184;11.268;2023-02-03T06:43:30;96584.97;;;3.79;100.00
43878;BME280;29815;48.184;11.268;2023-02-03T06:46:00;96595.00;;;3.77;100.00
43878;BME280;29815;48.184;11.268;2023-02-03T06:48:30;96599.75;;;3.81;100.00
43878;BME280;29815;48.184;11.268;2023-02-03T06:50:59;96605.69;;;3.90;100.00
43878;BME280;29815;48.184;11.268;2023-02-03T06:53:29;96629.44;;;3.78;100.00
43878;BME280;29815;48.184;11.268;2023-02-03T06:55:58;96641.53;;;3.81;100.00
43878;BME280;29815;48.184;11.268;2023-02-03T06:58:30;96642.16;;;3.83;100.00
43878;BME280;29815;48.184;11.268;2023-02-03T07:01:00;96650.31;;;3.88;100.00
43878;BME280;29815;48.184;11.268;2023-02-03T07:03:29;96631.50;;;3.83;100.00
43878;BME280;29815;48.184;11.268;2023-02-03T07:06:01;96617.97;;;3.91;100.00
43878;BME280;29815;48.184;11.268;2023-02-03T07:08:33;96620.84;;;3.89;100.00
43878;BME280;29815;48.184;11.268;2023-02-03T07:11:04;96620.00;;;3.89;100.00
43878;BME280;29815;48.184;11.268;2023-02-03T07:13:35;96615.31;;;3.91;100.00
43878;BME280;29815;48.184;11.268;2023-02-03T07:16:05;96613.03;;;3.88;100.00
43878;BME280;29815;48.184;11.268;2023-02-03T07:18:35;96607.94;;;3.93;100.00
43878;BME280;29815;48.184;11.268;2023-02-03T07:21:20;96592.78;;;3.93;100.00
43878;BME280;29815;48.184;11.268;2023-02-03T07:23:49;96595.44;;;3.93;100.00
43878;BME280;29815;48.184;11.268;2023-02-03T07:26:19;96596.47;;;3.99;100.00
43878;BME280;29815;48.184;11.268;2023-02-03T07:28:51;96583.16;;;3.99;100.00
43878;BME280;29815;48.184;11.268;2023-02-03T07:31:21;96574.78;;;4.02;100.00
43878;BME280;29815;48.184;11.268;2023-02-03T07:33:51;96547.72;;;3.98;100.00
43878;BME280;29815;48.184;11.268;2023-02-03T07:36:22;96556.72;;;4.11;100.00
43878;BME280;29815;48.184;11.268;2023-02-03T07:38:52;96549.97;;;4.15;100.00
43878;BME280;29815;48.184;11.268;2023-02-03T07:41:21;96552.44;;;4.16;100.00
43878;BME280;29815;48.184;11.268;2023-02-03T07:43:52;96552.22;;;4.24;100.00
43878;BME280;29815;48.184;11.268;2023-02-03T07:46:22;96567.00;;;4.27;100.00
43878;BME280;29815;48.184;11.268;2023-02-03T07:48:51;96562.69;;;4.32;100.00
43878;BME280;29815;48.184;11.268;2023-02-03T07:51:21;96560.00;;;4.39;100.00
43878;BME280;29815;48.184;11.268;2023-02-03T07:53:50;96559.78;;;4.40;100.00
43878;BME280;29815;48.184;11.268;2023-02-03T07:56:20;96561.03;;;4.38;100.00
43878;BME280;29815;48.184;11.268;2023-02-03T07:58:52;96573.53;;;4.44;100.00
43878;BME280;29815;48.184;11.268;2023-02-03T08:01:22;96564.31;;;4.53;100.00
43878;BME280;29815;48.184;11.268;2023-02-03T08:03:51;96581.94;;;4.61;100.00
43878;BME280;29815;48.184;11.268;2023-02-03T08:06:22;96580.72;;;4.57;100.00
43878;BME280;29815;48.184;11.268;2023-02-03T08:08:51;96586.03;;;4.57;100.00
43878;BME280;29815;48.184;11.268;2023-02-03T08:11:21;96589.13;;;4.60;100.00
43878;BME280;29815;48.184;11.268;2023-02-03T08:13:52;96594.81;;;4.70;100.00
43878;BME280;29815;48.184;11.268;2023-02-03T08:16:22;96591.53;;;4.75;100.00
43878;BME280;29815;48.184;11.268;2023-02-03T08:18:51;96616.97;;;4.78;100.00
43878;BME280;29815;48.184;11.268;2023-02-03T08:21:21;96622.31;;;4.78;100.00
43878;BME280;29815;48.184;11.268;2023-02-03T08:23:50;96617.19;;;4.76;100.00
43878;BME280;29815;48.184;11.268;2023-02-03T08:26:20;96620.25;;;4.73;100.00
43878;BME280;29815;48.184;11.268;2023-02-03T08:28:49;96611.84;;;4.76;100.00
43878;BME280;29815;48.184;11.268;2023-02-03T08:31:20;96611.69;;;4.64;100.00
43878;BME280;29815;48.184;11.268;2023-02-03T08:33:50;96615.53;;;4.68;100.00
43878;BME280;29815;48.184;11.268;2023-02-03T08:36:20;96620.25;;;4.73;100.00
43878;BME280;29815;48.184;11.268;2023-02-03T08:38:49;96622.72;;;4.74;100.00
43878;BME280;29815;48.184;11.268;2023-02-03T08:41:19;96616.38;;;4.75;100.00
43878;BME280;29815;48.184;11.268;2023-02-03T08:43:48;96608.56;;;4.74;100.00
43878;BME280;29815;48.184;11.268;2023-02-03T08:46:17;96614.31;;;4.78;100.00
43878;BME280;29815;48.184;11.268;2023-02-03T08:48:48;96593.59;;;4.80;100.00
43878;BME280;29815;48.184;11.268;2023-02-03T08:51:19;96581.91;;;4.81;100.00
43878;BME280;29815;48.184;11.268;2023-02-03T08:53:49;96564.47;;;4.85;100.00
43878;BME280;29815;48.184;11.268;2023-02-03T08:56:18;96570.41;;;4.87;100.00
43878;BME280;29815;48.184;11.268;2023-02-03T08:58:48;96567.72;;;4.87;100.00
43878;BME280;29815;48.184;11.268;2023-02-03T09:01:18;96574.66;;;4.94;100.00
43878;BME280;29815;48.184;11.268;2023-02-03T09:03:48;96569.94;;;4.96;100.00
43878;BME280;29815;48.184;11.268;2023-02-03T09:06:18;96564.81;;;4.95;100.00
43878;BME280;29815;48.184;11.268;2023-02-03T09:08:52;96584.72;;;4.99;100.00
43878;BME280;29815;48.184;11.268;2023-02-03T09:11:21;96582.44;;;5.02;100.00
43878;BME280;29815;48.184;11.268;2023-02-03T09:13:51;96581.41;;;5.10;100.00
43878;BME280;29815;48.184;11.268;2023-02-03T09:16:21;96570.13;;;5.08;100.00
43878;BME280;29815;48.184;11.268;2023-02-03T09:18:51;96562.31;;;5.13;100.00
43878;BME280;29815;48.184;11.268;2023-02-03T09:21:21;96570.31;;;5.13;100.00
43878;BME280;29815;48.184;11.268;2023-02-03T09:24:11;96558.56;;;5.21;100.00
43878;BME280;29815;48.184;11.268;2023-02-03T09:26:40;96567.63;;;5.20;100.00
43878;BME280;29815;48.184;11.268;2023-02-03T09:29:10;96572.31;;;5.24;100.00
43878;BME280;29815;48.184;11.268;2023-02-03T09:31:40;96584.63;;;5.32;100.00
43878;BME280;29815;48.184;11.268;2023-02-03T09:34:11;96561.63;;;5.31;100.00
43878;BME280;29815;48.184;11.268;2023-02-03T09:36:40;96563.63;;;5.42;100.00
43878;BME280;29815;48.184;11.268;2023-02-03T09:39:10;96572.28;;;5.37;100.00
43878;BME280;29815;48.184;11.268;2023-02-03T09:41:55;96567.94;;;5.43;100.00
43878;BME280;29815;48.184;11.268;2023-02-03T09:44:49;96567.88;;;5.50;100.00
43878;BME280;29815;48.184;11.268;2023-02-03T09:47:27;96553.28;;;5.59;100.00
43878;BME280;29815;48.184;11.268;2023-02-03T09:50:04;96573.81;;;5.58;100.00
43878;BME280;29815;48.184;11.268;2023-02-03T09:52:37;96576.66;;;5.63;100.00
43878;BME280;29815;48.184;11.268;2023-02-03T09:55:23;96560.44;;;5.65;100.00
43878;BME280;29815;48.184;11.268;2023-02-03T09:58:03;96553.84;;;5.67;100.00
43878;BME280;29815;48.184;11.268;2023-02-03T10:00:36;96555.81;;;5.78;100.00
43878;BME280;29815;48.184;11.268;2023-02-03T10:03:22;96555.19;;;5.90;100.00
43878;BME280;29815;48.184;11.268;2023-02-03T10:06:15;96547.56;;;5.87;100.00
43878;BME280;29815;48.184;11.268;2023-02-03T10:09:27;96551.09;;;5.81;100.00
43878;BME280;29815;48.184;11.268;2023-02-03T10:12:22;96575.34;;;5.79;100.00
43878;BME280;29815;48.184;11.268;2023-02-03T10:15:41;96598.63;;;5.72;100.00
43878;BME280;29815;48.184;11.268;2023-02-03T10:18:28;96573.31;;;5.74;100.00
43878;BME280;29815;48.184;11.268;2023-02-03T10:21:06;96569.84;;;5.74;100.00
43878;BME280;29815;48.184;11.268;2023-02-03T10:23:43;96566.38;;;5.67;100.00
43878;BME280;29815;48.184;11.268;2023-02-03T10:26:16;96578.06;;;5.72;100.00
43878;BME280;29815;48.184;11.268;2023-02-03T10:28:54;96573.09;;;5.76;100.00
43878;BME280;29815;48.184;11.268;2023-02-03T10:31:26;96567.31;;;5.79;100.00
43878;BME280;29815;48.184;11.268;2023-02-03T10:34:00;96548.81;;;5.84;100.00
43878;BME280;29815;48.184;11.268;2023-02-03T10:36:52;96551.09;;;5.81;100.00
43878;BME280;29815;48.184;11.268;2023-02-03T10:39:31;96552.72;;;5.82;100.00
43878;BME280;29815;48.184;11.268;2023-02-03T10:42:05;96554.75;;;5.86;100.00
43878;BME280;29815;48.184;11.268;2023-02-03T10:44:38;96555.78;;;5.92;100.00
43878;BME280;29815;48.184;11.268;2023-02-03T10:47:24;96539.09;;;5.96;100.00
43878;BME280;29815;48.184;11.268;2023-02-03T10:49:56;96540.56;;;5.92;100.00
43878;BME280;29815;48.184;11.268;2023-02-03T10:52:31;96538.09;;;5.91;100.00
43878;BME280;29815;48.184;11.268;2023-02-03T10:55:07;96558.03;;;5.95;100.00
43878;BME280;29815;48.184;11.268;2023-02-03T10:58:09;96554.75;;;5.93;100.00
43878;BME280;29815;48.184;11.268;2023-02-03T11:00:44;96589.88;;;5.96;100.00
43878;BME280;29815;48.184;11.268;2023-02-03T11:03:22;96579.72;;;6.05;100.00
43878;BME280;29815;48.184;11.268;2023-02-03T11:06:06;96586.91;;;6.04;100.00
43878;BME280;29815;48.184;11.268;2023-02-03T11:08:42;96596.03;;;5.97;100.00
43878;BME280;29815;48.184;11.268;2023-02-03T11:11:14;96563.16;;;5.96;100.00
43878;BME280;29815;48.184;11.268;2023-02-03T11:13:53;96571.28;;;6.08;100.00
43878;BME280;29815;48.184;11.268;2023-02-03T11:16:24;96562.41;;;6.14;100.00
43878;BME280;29815;48.184;11.268;2023-02-03T11:18:56;96556.50;;;6.05;100.00
43878;BME280;29815;48.184;11.268;2023-02-03T11:21:28;96565.50;;;6.11;100.00
43878;BME280;29815;48.184;11.268;2023-02-03T11:24:08;96542.09;;;6.06;100.00
43878;BME280;29815;48.184;11.268;2023-02-03T11:26:46;96539.63;;;6.05;100.00
43878;BME280;29815;48.184;11.268;2023-02-03T11:29:21;96544.69;;;6.20;100.00
43878;BME280;29815;48.184;11.268;2023-02-03T11:31:54;96530.16;;;6.34;100.00
43878;BME280;29815;48.184;11.268;2023-02-03T11:34:28;96515.75;;;6.35;100.00
43878;BME280;29815;48.184;11.268;2023-02-03T11:37:22;96512.41;;;6.39;100.00
43878;BME280;29815;48.184;11.268;2023-02-03T11:40:10;96491.72;;;6.53;100.00
43878;BME280;29815;48.184;11.268;2023-02-03T11:43:00;96482.50;;;6.49;100.00
43878;BME280;29815;48.184;11.268;2023-02-03T11:45:37;96477.66;;;6.58;100.00
43878;BME280;29815;48.184;11.268;2023-02-03T11:48:25;96476.50;;;6.54;100.00
43878;BME280;29815;48.184;11.268;2023-02-03T11:51:03;96469.59;;;6.64;100.00
43878;BME280;29815;48.184;11.268;2023-02-03T11:53:58;96473.13;;;6.58;100.00
43878;BME280;29815;48.184;11.268;2023-02-03T11:56:55;96484.59;;;6.65;100.00
43878;BME280;29815;48.184;11.268;2023-02-03T11:59:51;96475.97;;;6.63;100.00
43878;BME280;29815;48.184;11.268;2023-02-03T12:07:00;96505.16;;;6.47;100.00
43878;BME280;29815;48.184;11.268;2023-02-03T12:09:45;96481.53;;;6.43;100.00
43878;BME280;29815;48.184;11.268;2023-02-03T12:12:35;96463.69;;;6.37;100.00
43878;BME280;29815;48.184;11.268;2023-02-03T12:15:31;96449.50;;;6.37;100.00
43878;BME280;29815;48.184;11.268;2023-02-03T12:18:26;96458.34;;;6.37;100.00
43878;BME280;29815;48.184;11.268;2023-02-03T12:21:22;96468.81;;;6.39;100.00
43878;BME280;29815;48.184;11.268;2023-02-03T12:24:11;96456.06;;;6.41;100.00
43878;BME280;29815;48.184;11.268;2023-02-03T12:26:55;96471.41;;;6.27;100.00
43878;BME280;29815;48.184;11.268;2023-02-03T12:29:36;96424.47;;;6.31;100.00
43878;BME280;29815;48.184;11.268;2023-02-03T12:32:18;96454.34;;;6.28;100.00
43878;BME280;29815;48.184;11.268;2023-02-03T12:34:58;96413.03;;;6.24;100.00
43878;BME280;29815;48.184;11.268;2023-02-03T12:37:42;96408.38;;;6.38;100.00
43878;BME280;29815;48.184;11.268;2023-02-03T12:40:20;96420.41;;;6.29;100.00
43878;BME280;29815;48.184;11.268;2023-02-03T12:43:22;96401.69;;;6.29;100.00
43878;BME280;29815;48.184;11.268;2023-02-03T12:46:00;96400.41;;;6.31;100.00
43878;BME280;29815;48.184;11.268;2023-02-03T12:48:42;96405.16;;;6.29;100.00
43878;BME280;29815;48.184;11.268;2023-02-03T12:51:26;96394.78;;;6.39;100.00
43878;BME280;29815;48.184;11.268;2023-02-03T12:54:02;96393.44;;;6.30;100.00
43878;BME280;29815;48.184;11.268;2023-02-03T12:56:39;96388.41;;;6.22;100.00
43878;BME280;29815;48.184;11.268;2023-02-03T12:59:16;96376.13;;;6.15;100.00
43878;BME280;29815;48.184;11.268;2023-02-03T13:01:53;96391.34;;;6.14;100.00
43878;BME280;29815;48.184;11.268;2023-02-03T13:04:32;96356.59;;;6.14;100.00
43878;BME280;29815;48.184;11.268;2023-02-03T13:07:11;96368.56;;;6.11;100.00
43878;BME280;29815;48.184;11.268;2023-02-03T13:09:51;96351.53;;;6.06;100.00
43878;BME280;29815;48.184;11.268;2023-02-03T13:12:30;96362.81;;;6.08;100.00
43878;BME280;29815;48.184;11.268;2023-02-03T13:15:18;96353.78;;;6.09;100.00
43878;BME280;29815;48.184;11.268;2023-02-03T13:17:58;96349.84;;;6.11;100.00
43878;BME280;29815;48.184;11.268;2023-02-03T13:20:33;96351.41;;;6.19;100.00
43878;BME280;29815;48.184;11.268;2023-02-03T13:23:06;96345.03;;;6.20;100.00
43878;BME280;29815;48.184;11.268;2023-02-03T13:25:53;96361.88;;;6.21;100.00
43878;BME280;29815;48.184;11.268;2023-02-03T13:28:50;96351.84;;;6.16;100.00
43878;BME280;29815;48.184;11.268;2023-02-03T13:31:42;96355.56;;;6.15;100.00
43878;BME280;29815;48.184;11.268;2023-02-03T13:34:42;96361.63;;;6.04;100.00
43878;BME280;29815;48.184;11.268;2023-02-03T13:38:13;96339.81;;;6.07;100.00
43878;BME280;29815;48.184;11.268;2023-02-03T13:40:59;96334.25;;;6.08;100.00